createdAt,value
2019-05-12T00:00:39.179Z,12
2019-05-12T00:05:40.514Z,10
2019-05-12T00:10:42.993Z,10
2019-05-12T00:15:47.533Z,9
2019-05-12T00:20:47.964Z,8
2019-05-12T00:25:50.093Z,8
2019-05-12T00:30:52.659Z,7
2019-05-12T00:35:55.016Z,9
2019-05-12T00:40:58.283Z,6
2019-05-12T00:45:59.893Z,7
2019-05-12T00:51:02.634Z,7
2019-05-12T00:56:04.826Z,7
2019-05-12T01:01:08.056Z,7
2019-05-12T01:06:09.827Z,6
2019-05-12T01:11:12.268Z,6
2019-05-12T01:16:14.641Z,5
2019-05-12T01:21:18.421Z,5
2019-05-12T01:26:19.636Z,4
2019-05-12T01:31:22.136Z,9
2019-05-12T01:36:24.523Z,9
2019-05-12T01:41:28.615Z,6
2019-05-12T01:46:29.433Z,8
2019-05-12T01:51:31.872Z,8
2019-05-12T01:56:34.401Z,7
2019-05-12T02:01:38.809Z,7
2019-05-12T02:06:39.255Z,7
2019-05-12T02:11:41.749Z,8
2019-05-12T02:16:44.147Z,8
2019-05-12T02:21:48.620Z,4
2019-05-12T02:26:49.118Z,6
2019-05-12T02:31:51.856Z,6
2019-05-12T02:36:55.447Z,6
2019-05-12T02:41:56.478Z,5
2019-05-12T02:46:58.873Z,6
2019-05-12T02:52:01.355Z,7
2019-05-12T02:57:04.380Z,9
2019-05-12T03:02:06.354Z,10
2019-05-12T03:07:08.833Z,7
2019-05-12T03:12:14.106Z,8
2019-05-12T03:17:15.309Z,12
2019-05-12T03:22:16.138Z,9
2019-05-12T03:27:18.560Z,9
2019-05-12T03:32:26.506Z,7
2019-05-12T03:37:30.421Z,7
2019-05-12T03:42:25.966Z,7
2019-05-12T03:47:28.422Z,7
2019-05-12T03:52:30.851Z,6
2019-05-12T03:57:34.468Z,6
2019-05-12T04:02:35.778Z,6
2019-05-12T04:07:38.292Z,7
2019-05-12T04:12:40.717Z,7
2019-05-12T04:17:45.122Z,7
2019-05-12T04:22:45.687Z,5
2019-05-12T04:27:48.032Z,8
2019-05-12T04:37:55.271Z,5
2019-05-12T04:42:55.538Z,7
2019-05-12T04:47:57.961Z,6
2019-05-12T04:53:00.339Z,6
2019-05-12T04:58:04.365Z,4
2019-05-12T05:03:05.905Z,7
2019-05-12T05:08:07.820Z,6
2019-05-12T05:13:10.263Z,5
2019-05-12T05:18:13.322Z,7
2019-05-12T05:23:15.143Z,6
2019-05-12T05:28:17.529Z,6
2019-05-12T05:33:20.134Z,5
2019-05-12T05:38:23.668Z,7
2019-05-12T05:43:24.946Z,6
2019-05-12T05:48:27.371Z,9
2019-05-12T05:53:29.841Z,5
2019-05-12T05:58:33.890Z,6
2019-05-12T06:03:34.743Z,9
2019-05-12T06:08:37.196Z,7
2019-05-12T06:13:40.186Z,6
2019-05-12T06:18:43.896Z,10
2019-05-12T06:23:44.690Z,9
2019-05-12T06:28:47.030Z,9
2019-05-12T06:33:49.513Z,7
2019-05-12T06:43:54.498Z,10
2019-05-12T06:49:00.298Z,9
2019-05-12T06:54:00.804Z,10
2019-05-12T06:59:09.323Z,11
2019-05-12T07:04:06.339Z,10
2019-05-12T07:09:09.703Z,13
2019-05-12T07:19:17.029Z,9
2019-05-12T07:24:14.293Z,9
2019-05-12T07:29:16.538Z,9
2019-05-12T07:34:19.034Z,9
2019-05-12T07:39:24.017Z,8
2019-05-12T07:44:25.194Z,9
2019-05-12T07:49:33.931Z,9
2019-05-12T07:54:29.278Z,11
2019-05-12T07:59:35.489Z,6
2019-05-12T08:04:39.540Z,8
2019-05-12T08:09:36.744Z,12
2019-05-12T08:14:38.666Z,9
2019-05-12T08:19:41.110Z,8
2019-05-12T08:24:47.950Z,10
2019-05-12T08:29:46.026Z,8
2019-05-12T08:34:48.498Z,9
2019-05-12T08:39:53.101Z,11
2019-05-12T08:44:54.211Z,10
2019-05-12T08:49:58.554Z,11
2019-05-12T08:54:58.307Z,8
2019-05-12T09:00:03.120Z,8
2019-05-12T09:05:04.598Z,9
2019-05-12T09:10:06.217Z,9
2019-05-12T09:15:08.530Z,9
2019-05-12T09:20:10.663Z,9
2019-05-12T09:25:14.278Z,9
2019-05-12T09:30:15.563Z,6
2019-05-12T09:35:18.033Z,8
2019-05-12T09:40:22.064Z,7
2019-05-12T09:45:24.207Z,9
2019-05-12T09:50:25.367Z,7
2019-05-12T09:55:27.789Z,6
2019-05-12T10:00:35.644Z,6
2019-05-12T10:05:37.371Z,8
2019-05-12T10:10:39.979Z,6
2019-05-12T10:15:37.646Z,8
2019-05-12T10:20:40.165Z,5
2019-05-12T10:25:44.531Z,4
2019-05-12T10:30:51.949Z,5
2019-05-12T10:35:47.572Z,8
2019-05-12T10:40:50.227Z,5
2019-05-12T10:45:53.741Z,5
2019-05-12T10:50:54.966Z,4
2019-05-12T10:55:57.366Z,6
2019-05-12T11:01:04.967Z,3
2019-05-12T11:06:06.716Z,4
2019-05-12T11:11:04.684Z,5
2019-05-12T11:16:07.601Z,7
2019-05-12T11:21:09.684Z,4
2019-05-12T11:26:14.046Z,3
2019-05-12T11:31:14.509Z,6
2019-05-12T11:36:16.979Z,7
2019-05-12T11:41:20.318Z,3
2019-05-12T11:46:23.761Z,7
2019-05-12T11:51:26.864Z,5
2019-05-12T11:56:26.832Z,4
2019-05-12T12:01:29.284Z,4
2019-05-12T12:06:33.121Z,5
2019-05-12T12:11:34.331Z,3
2019-05-12T12:16:41.789Z,7
2019-05-12T12:21:40.268Z,6
2019-05-12T12:26:44.215Z,4
2019-05-12T12:31:44.040Z,3
2019-05-12T12:36:46.652Z,5
2019-05-12T12:41:55.984Z,4
2019-05-12T12:46:59.724Z,4
2019-05-12T12:51:53.843Z,3
2019-05-12T12:57:00.004Z,3
2019-05-12T13:02:04.087Z,4
2019-05-12T13:07:01.234Z,2
2019-05-12T13:12:05.819Z,6
2019-05-12T13:17:06.212Z,4
2019-05-12T13:22:08.836Z,3
2019-05-12T13:27:11.094Z,4
2019-05-12T13:32:13.822Z,4
2019-05-12T13:37:19.375Z,2
2019-05-12T13:42:18.441Z,3
2019-05-12T13:47:21.008Z,2
2019-05-12T13:52:26.123Z,2
2019-05-12T13:57:25.860Z,3
2019-05-12T14:02:28.271Z,4
2019-05-12T14:07:30.729Z,3
2019-05-12T14:12:33.187Z,5
2019-05-12T14:17:40.059Z,2
2019-05-12T14:22:38.203Z,5
2019-05-12T14:27:40.682Z,3
2019-05-12T14:32:43.937Z,3
2019-05-12T14:37:47.424Z,3
2019-05-12T14:42:47.950Z,4
2019-05-12T14:47:50.392Z,5
2019-05-12T14:52:55.785Z,5
2019-05-12T14:57:55.341Z,3
2019-05-12T15:02:59.044Z,4
2019-05-12T15:08:00.494Z,2
2019-05-12T15:13:03.541Z,3
2019-05-12T15:18:09.326Z,2
2019-05-12T15:23:07.673Z,2
2019-05-12T15:28:10.148Z,3
2019-05-12T15:33:13.844Z,3
2019-05-12T15:38:16.784Z,2
2019-05-12T15:43:17.462Z,4
2019-05-12T15:48:19.899Z,4
2019-05-12T15:53:26.633Z,2
2019-05-12T15:58:24.912Z,9
2019-05-12T16:03:27.255Z,2
2019-05-12T16:08:29.807Z,3
2019-05-12T16:13:33.765Z,3
2019-05-12T16:18:34.632Z,3
2019-05-12T16:23:37.255Z,4
2019-05-12T16:28:39.599Z,2
2019-05-12T16:33:43.605Z,3
2019-05-12T16:38:44.670Z,4
2019-05-12T16:43:46.938Z,2
2019-05-12T16:48:54.335Z,2
2019-05-12T16:53:53.865Z,5
2019-05-12T16:58:54.332Z,3
2019-05-12T17:03:56.780Z,4
2019-05-12T17:08:59.210Z,2
2019-05-12T17:14:04.822Z,2
2019-05-12T17:19:05.890Z,2
2019-05-12T17:24:06.685Z,3
2019-05-12T17:29:09.081Z,3
2019-05-12T17:34:11.522Z,1
2019-05-12T17:39:14.135Z,3
2019-05-12T17:44:16.726Z,3
2019-05-12T17:49:25.087Z,2
2019-05-12T17:54:23.315Z,2
2019-05-12T17:59:28.938Z,5
2019-05-12T18:04:30.354Z,2
2019-05-12T18:09:30.600Z,3
2019-05-12T18:14:31.185Z,5
2019-05-12T18:19:34.010Z,3
2019-05-12T18:24:36.188Z,3
2019-05-12T18:29:38.541Z,3
2019-05-12T18:34:41.077Z,2
2019-05-12T18:39:43.866Z,3
2019-05-12T18:44:45.935Z,3
2019-05-12T18:49:50.123Z,4
2019-05-12T18:54:52.408Z,4
2019-05-12T18:59:54.945Z,5
2019-05-12T19:04:55.819Z,4
2019-05-12T19:09:59.261Z,5
2019-05-12T19:15:00.740Z,3
2019-05-12T19:20:05.176Z,2
2019-05-12T19:25:05.628Z,3
2019-05-12T19:30:08.034Z,3
2019-05-12T19:35:15.700Z,2
2019-05-12T19:40:14.774Z,3
2019-05-12T19:45:21.246Z,3
2019-05-12T19:50:18.681Z,3
2019-05-12T19:55:20.412Z,3
2019-05-12T20:00:22.840Z,5
2019-05-12T20:05:25.246Z,3
2019-05-12T20:10:27.782Z,2
2019-05-12T20:15:35.502Z,2
2019-05-12T20:20:35.884Z,3
2019-05-12T20:25:35.063Z,3
2019-05-12T20:30:37.544Z,4
2019-05-12T20:35:44.975Z,4
2019-05-12T20:40:45.075Z,2
2019-05-12T20:45:45.687Z,6
2019-05-12T20:50:47.376Z,3
2019-05-12T20:55:49.887Z,8
2019-05-12T21:00:53.778Z,2
2019-05-12T21:05:57.710Z,3
2019-05-12T21:10:57.280Z,3
2019-05-12T21:15:59.639Z,2
2019-05-12T21:21:03.499Z,4
2019-05-12T21:26:04.643Z,3
2019-05-12T21:31:08.585Z,4
2019-05-12T21:36:14.381Z,2
2019-05-12T21:41:13.306Z,3
2019-05-12T21:46:15.474Z,4
2019-05-12T21:51:19.874Z,2
2019-05-12T21:56:19.280Z,5
2019-05-12T22:01:23.865Z,2
2019-05-12T22:06:24.884Z,3
2019-05-12T22:11:26.688Z,4
2019-05-12T22:16:35.135Z,4
2019-05-12T22:21:35.639Z,4
2019-05-12T22:26:39.519Z,3
2019-05-12T22:31:38.453Z,3
2019-05-12T22:36:45.154Z,3
2019-05-12T22:41:41.725Z,2
2019-05-12T22:46:43.889Z,4
2019-05-12T22:51:46.522Z,4
2019-05-12T22:56:49.442Z,4
2019-05-12T23:01:53.962Z,2
2019-05-12T23:06:53.979Z,2
2019-05-12T23:11:56.170Z,4
2019-05-12T23:16:59.925Z,4
2019-05-12T23:22:03.341Z,4
2019-05-12T23:27:04.801Z,3
2019-05-12T23:32:09.954Z,3
2019-05-12T23:37:08.425Z,3
2019-05-12T23:42:10.917Z,2
2019-05-12T23:47:13.353Z,2
2019-05-12T23:52:15.937Z,2
2019-05-12T23:57:18.269Z,3
